sensor_id;sensor_type;location;lat;lon;timestamp;temperature;humidity
21787;DHT22;11055;50.870;4.316;2022-07-23T00:00:07;20.50;99.90
21787;DHT22;11055;50.870;4.316;2022-07-23T00:02:33;20.40;99.90
21787;DHT22;11055;50.870;4.316;2022-07-23T00:04:59;20.50;99.90
21787;DHT22;11055;50.870;4.316;2022-07-23T00:07:24;20.40;99.90
21787;DHT22;11055;50.870;4.316;2022-07-23T00:09:50;20.40;99.90
21787;DHT22;11055;50.870;4.316;2022-07-23T00:12:15;20.50;99.90
21787;DHT22;11055;50.870;4.316;2022-07-23T00:14:41;20.40;99.90
21787;DHT22;11055;50.870;4.316;2022-07-23T00:17:06;20.30;99.90
21787;DHT22;11055;50.870;4.316;2022-07-23T00:19:32;20.20;99.90
21787;DHT22;11055;50.870;4.316;2022-07-23T00:21:58;20.20;99.90
21787;DHT22;11055;50.870;4.316;2022-07-23T00:24:23;20.00;99.90
21787;DHT22;11055;50.870;4.316;2022-07-23T00:26:49;20.00;99.90
21787;DHT22;11055;50.870;4.316;2022-07-23T00:29:14;20.00;99.90
21787;DHT22;11055;50.870;4.316;2022-07-23T00:31:40;20.10;99.90
21787;DHT22;11055;50.870;4.316;2022-07-23T00:34:06;20.10;99.90
21787;DHT22;11055;50.870;4.316;2022-07-23T00:36:32;20.20;99.90
21787;DHT22;11055;50.870;4.316;2022-07-23T00:38:57;20.20;99.90
21787;DHT22;11055;50.870;4.316;2022-07-23T00:41:23;20.20;99.90
21787;DHT22;11055;50.870;4.316;2022-07-23T00:43:49;20.20;99.90
21787;DHT22;11055;50.870;4.316;2022-07-23T00:46:21;20.20;99.90
21787;DHT22;11055;50.870;4.316;2022-07-23T00:48:47;20.20;99.90
21787;DHT22;11055;50.870;4.316;2022-07-23T00:51:12;20.30;99.90
21787;DHT22;11055;50.870;4.316;2022-07-23T00:53:38;20.30;99.90
21787;DHT22;11055;50.870;4.316;2022-07-23T00:56:04;20.20;99.90
21787;DHT22;11055;50.870;4.316;2022-07-23T00:58:29;20.20;99.90
21787;DHT22;11055;50.870;4.316;2022-07-23T01:00:55;20.20;99.90
21787;DHT22;11055;50.870;4.316;2022-07-23T01:03:20;20.30;99.90
21787;DHT22;11055;50.870;4.316;2022-07-23T01:05:47;20.20;99.90
21787;DHT22;11055;50.870;4.316;2022-07-23T01:08:13;20.10;99.90
21787;DHT22;11055;50.870;4.316;2022-07-23T01:10:38;20.00;99.90
21787;DHT22;11055;50.870;4.316;2022-07-23T01:13:05;19.90;99.90
21787;DHT22;11055;50.870;4.316;2022-07-23T01:15:31;20.00;99.90
21787;DHT22;11055;50.870;4.316;2022-07-23T01:17:57;20.10;99.90
21787;DHT22;11055;50.870;4.316;2022-07-23T01:20:22;20.00;99.90
21787;DHT22;11055;50.870;4.316;2022-07-23T01:22:48;19.90;99.90
21787;DHT22;11055;50.870;4.316;2022-07-23T01:25:14;19.90;99.90
21787;DHT22;11055;50.870;4.316;2022-07-23T01:27:40;19.80;99.90
21787;DHT22;11055;50.870;4.316;2022-07-23T01:30:06;19.80;99.90
21787;DHT22;11055;50.870;4.316;2022-07-23T01:32:31;19.70;99.90
21787;DHT22;11055;50.870;4.316;2022-07-23T01:34:57;19.60;99.90
21787;DHT22;11055;50.870;4.316;2022-07-23T01:37:22;19.50;99.90
21787;DHT22;11055;50.870;4.316;2022-07-23T01:39:48;19.50;99.90
21787;DHT22;11055;50.870;4.316;2022-07-23T01:42:13;19.60;99.90
21787;DHT22;11055;50.870;4.316;2022-07-23T01:44:39;19.60;99.90
21787;DHT22;11055;50.870;4.316;2022-07-23T01:47:04;19.60;99.90
21787;DHT22;11055;50.870;4.316;2022-07-23T01:49:30;19.70;99.90
21787;DHT22;11055;50.870;4.316;2022-07-23T01:51:55;19.70;99.90
21787;DHT22;11055;50.870;4.316;2022-07-23T01:54:28;19.60;99.90
21787;DHT22;11055;50.870;4.316;2022-07-23T01:56:54;19.70;99.90
21787;DHT22;11055;50.870;4.316;2022-07-23T01:59:19;19.70;99.90
21787;DHT22;11055;50.870;4.316;2022-07-23T02:01:45;19.70;99.90
21787;DHT22;11055;50.870;4.316;2022-07-23T02:04:10;19.70;99.90
21787;DHT22;11055;50.870;4.316;2022-07-23T02:06:36;19.80;99.90
21787;DHT22;11055;50.870;4.316;2022-07-23T02:09:01;19.80;99.90
21787;DHT22;11055;50.870;4.316;2022-07-23T02:11:27;19.80;99.90
21787;DHT22;11055;50.870;4.316;2022-07-23T02:13:53;19.80;99.90
21787;DHT22;11055;50.870;4.316;2022-07-23T02:16:18;19.80;99.90
21787;DHT22;11055;50.870;4.316;2022-07-23T02:18:44;19.70;99.90
21787;DHT22;11055;50.870;4.316;2022-07-23T02:21:09;19.60;99.90
21787;DHT22;11055;50.870;4.316;2022-07-23T02:23:35;19.50;99.90
21787;DHT22;11055;50.870;4.316;2022-07-23T02:26:00;19.60;99.90
21787;DHT22;11055;50.870;4.316;2022-07-23T02:28:26;19.60;99.90
21787;DHT22;11055;50.870;4.316;2022-07-23T02:30:51;19.50;99.90
21787;DHT22;11055;50.870;4.316;2022-07-23T02:33:17;19.60;99.90
21787;DHT22;11055;50.870;4.316;2022-07-23T02:35:42;19.60;99.90
21787;DHT22;11055;50.870;4.316;2022-07-23T02:38:08;19.60;99.90
21787;DHT22;11055;50.870;4.316;2022-07-23T02:40:33;19.40;99.90
21787;DHT22;11055;50.870;4.316;2022-07-23T02:42:59;19.40;99.90
21787;DHT22;11055;50.870;4.316;2022-07-23T02:45:24;19.50;99.90
21787;DHT22;11055;50.870;4.316;2022-07-23T02:47:50;19.50;99.90
21787;DHT22;11055;50.870;4.316;2022-07-23T02:50:15;19.50;99.90
21787;DHT22;11055;50.870;4.316;2022-07-23T02:52:41;19.40;99.90
21787;DHT22;11055;50.870;4.316;2022-07-23T02:55:07;19.40;99.90
21787;DHT22;11055;50.870;4.316;2022-07-23T02:57:32;19.50;99.90
21787;DHT22;11055;50.870;4.316;2022-07-23T02:59:58;19.40;99.90
21787;DHT22;11055;50.870;4.316;2022-07-23T03:02:23;19.30;99.90
21787;DHT22;11055;50.870;4.316;2022-07-23T03:04:49;19.40;99.90
21787;DHT22;11055;50.870;4.316;2022-07-23T03:07:16;19.40;99.90
21787;DHT22;11055;50.870;4.316;2022-07-23T03:09:41;19.50;99.90
21787;DHT22;11055;50.870;4.316;2022-07-23T03:12:07;19.50;99.90
21787;DHT22;11055;50.870;4.316;2022-07-23T03:14:32;19.50;99.90
21787;DHT22;11055;50.870;4.316;2022-07-23T03:16:58;19.50;99.90
21787;DHT22;11055;50.870;4.316;2022-07-23T03:19:25;19.50;99.90
21787;DHT22;11055;50.870;4.316;2022-07-23T03:21:50;19.50;99.90
21787;DHT22;11055;50.870;4.316;2022-07-23T03:24:16;19.50;99.90
21787;DHT22;11055;50.870;4.316;2022-07-23T03:26:43;19.60;99.90
21787;DHT22;11055;50.870;4.316;2022-07-23T03:29:09;19.50;99.90
21787;DHT22;11055;50.870;4.316;2022-07-23T03:31:34;19.50;99.90
21787;DHT22;11055;50.870;4.316;2022-07-23T03:34:00;19.40;99.90
21787;DHT22;11055;50.870;4.316;2022-07-23T03:36:26;19.30;99.90
21787;DHT22;11055;50.870;4.316;2022-07-23T03:38:52;19.40;99.90
21787;DHT22;11055;50.870;4.316;2022-07-23T03:41:18;19.40;99.90
21787;DHT22;11055;50.870;4.316;2022-07-23T03:43:43;19.30;99.90
21787;DHT22;11055;50.870;4.316;2022-07-23T03:46:09;19.20;99.90
21787;DHT22;11055;50.870;4.316;2022-07-23T03:48:35;19.20;99.90
21787;DHT22;11055;50.870;4.316;2022-07-23T03:51:00;19.20;99.90
21787;DHT22;11055;50.870;4.316;2022-07-23T03:53:26;19.20;99.90
21787;DHT22;11055;50.870;4.316;2022-07-23T03:55:52;19.00;99.90
21787;DHT22;11055;50.870;4.316;2022-07-23T03:58:17;19.00;99.90
21787;DHT22;11055;50.870;4.316;2022-07-23T04:00:43;19.00;99.90
21787;DHT22;11055;50.870;4.316;2022-07-23T04:03:08;19.00;99.90
21787;DHT22;11055;50.870;4.316;2022-07-23T04:05:34;18.90;99.90
21787;DHT22;11055;50.870;4.316;2022-07-23T04:07:59;19.00;99.90
21787;DHT22;11055;50.870;4.316;2022-07-23T04:10:25;18.90;99.90
21787;DHT22;11055;50.870;4.316;2022-07-23T04:12:50;18.80;99.90
21787;DHT22;11055;50.870;4.316;2022-07-23T04:15:16;18.80;99.90
21787;DHT22;11055;50.870;4.316;2022-07-23T04:17:41;18.80;99.90
21787;DHT22;11055;50.870;4.316;2022-07-23T04:20:09;18.90;99.90
21787;DHT22;11055;50.870;4.316;2022-07-23T04:22:35;18.80;99.90
21787;DHT22;11055;50.870;4.316;2022-07-23T04:25:00;18.80;99.90
21787;DHT22;11055;50.870;4.316;2022-07-23T04:27:26;18.90;99.90
21787;DHT22;11055;50.870;4.316;2022-07-23T04:29:51;18.80;99.90
21787;DHT22;11055;50.870;4.316;2022-07-23T04:32:17;18.90;99.90
21787;DHT22;11055;50.870;4.316;2022-07-23T04:34:42;18.90;99.90
21787;DHT22;11055;50.870;4.316;2022-07-23T04:37:08;19.00;99.90
21787;DHT22;11055;50.870;4.316;2022-07-23T04:39:33;18.80;99.90
21787;DHT22;11055;50.870;4.316;2022-07-23T04:41:59;18.80;99.90
21787;DHT22;11055;50.870;4.316;2022-07-23T04:44:24;18.80;99.90
21787;DHT22;11055;50.870;4.316;2022-07-23T04:46:50;18.60;99.90
21787;DHT22;11055;50.870;4.316;2022-07-23T04:49:15;18.50;99.90
21787;DHT22;11055;50.870;4.316;2022-07-23T04:51:41;18.50;99.90
21787;DHT22;11055;50.870;4.316;2022-07-23T04:54:06;18.50;99.90
21787;DHT22;11055;50.870;4.316;2022-07-23T04:56:32;18.60;99.90
21787;DHT22;11055;50.870;4.316;2022-07-23T04:58:57;18.60;99.90
21787;DHT22;11055;50.870;4.316;2022-07-23T05:01:23;18.60;99.90
21787;DHT22;11055;50.870;4.316;2022-07-23T05:03:49;18.50;99.90
21787;DHT22;11055;50.870;4.316;2022-07-23T05:06:14;18.60;99.90
21787;DHT22;11055;50.870;4.316;2022-07-23T05:08:40;18.80;99.90
21787;DHT22;11055;50.870;4.316;2022-07-23T05:11:06;18.80;99.90
21787;DHT22;11055;50.870;4.316;2022-07-23T05:13:31;18.90;99.90
21787;DHT22;11055;50.870;4.316;2022-07-23T05:15:57;18.80;99.90
21787;DHT22;11055;50.870;4.316;2022-07-23T05:18:22;18.90;99.90
21787;DHT22;11055;50.870;4.316;2022-07-23T05:20:48;18.90;99.90
21787;DHT22;11055;50.870;4.316;2022-07-23T05:23:13;19.10;99.90
21787;DHT22;11055;50.870;4.316;2022-07-23T05:25:39;19.10;99.90
21787;DHT22;11055;50.870;4.316;2022-07-23T05:28:05;19.10;99.90
21787;DHT22;11055;50.870;4.316;2022-07-23T05:30:30;19.20;99.90
21787;DHT22;11055;50.870;4.316;2022-07-23T05:32:56;19.10;99.90
21787;DHT22;11055;50.870;4.316;2022-07-23T05:35:21;19.10;99.90
21787;DHT22;11055;50.870;4.316;2022-07-23T05:37:47;19.10;99.90
21787;DHT22;11055;50.870;4.316;2022-07-23T05:40:12;19.10;99.90
21787;DHT22;11055;50.870;4.316;2022-07-23T05:42:39;19.20;99.90
21787;DHT22;11055;50.870;4.316;2022-07-23T05:45:05;19.20;99.90
21787;DHT22;11055;50.870;4.316;2022-07-23T05:47:44;19.30;99.90
21787;DHT22;11055;50.870;4.316;2022-07-23T05:50:09;19.30;99.90
21787;DHT22;11055;50.870;4.316;2022-07-23T05:52:35;19.40;99.90
21787;DHT22;11055;50.870;4.316;2022-07-23T05:55:01;19.40;99.90
21787;DHT22;11055;50.870;4.316;2022-07-23T05:57:26;19.40;99.90
21787;DHT22;11055;50.870;4.316;2022-07-23T05:59:52;19.40;99.90
21787;DHT22;11055;50.870;4.316;2022-07-23T06:02:17;19.50;99.90
21787;DHT22;11055;50.870;4.316;2022-07-23T06:04:43;19.50;99.90
21787;DHT22;11055;50.870;4.316;2022-07-23T06:07:08;19.40;99.90
21787;DHT22;11055;50.870;4.316;2022-07-23T06:09:34;19.20;99.90
21787;DHT22;11055;50.870;4.316;2022-07-23T06:11:59;19.30;99.90
21787;DHT22;11055;50.870;4.316;2022-07-23T06:14:25;19.30;99.90
21787;DHT22;11055;50.870;4.316;2022-07-23T06:16:50;19.00;99.90
21787;DHT22;11055;50.870;4.316;2022-07-23T06:19:16;19.20;99.90
21787;DHT22;11055;50.870;4.316;2022-07-23T06:21:41;19.30;99.90
21787;DHT22;11055;50.870;4.316;2022-07-23T06:24:07;19.30;99.90
21787;DHT22;11055;50.870;4.316;2022-07-23T06:26:32;19.30;99.90
21787;DHT22;11055;50.870;4.316;2022-07-23T06:28:58;19.30;99.90
21787;DHT22;11055;50.870;4.316;2022-07-23T06:31:23;19.30;99.90
21787;DHT22;11055;50.870;4.316;2022-07-23T06:33:49;19.30;99.90
21787;DHT22;11055;50.870;4.316;2022-07-23T06:36:15;19.30;99.90
21787;DHT22;11055;50.870;4.316;2022-07-23T06:38:40;19.30;99.90
21787;DHT22;11055;50.870;4.316;2022-07-23T06:41:06;19.40;99.90
21787;DHT22;11055;50.870;4.316;2022-07-23T06:43:31;19.50;99.90
21787;DHT22;11055;50.870;4.316;2022-07-23T06:45:57;19.60;99.90
21787;DHT22;11055;50.870;4.316;2022-07-23T06:48:22;19.70;99.90
21787;DHT22;11055;50.870;4.316;2022-07-23T06:50:48;19.70;99.90
21787;DHT22;11055;50.870;4.316;2022-07-23T06:53:13;19.80;99.90
21787;DHT22;11055;50.870;4.316;2022-07-23T06:55:39;19.80;99.90
21787;DHT22;11055;50.870;4.316;2022-07-23T06:58:05;19.80;99.90
21787;DHT22;11055;50.870;4.316;2022-07-23T07:00:31;19.90;99.90
21787;DHT22;11055;50.870;4.316;2022-07-23T07:02:57;19.90;99.90
21787;DHT22;11055;50.870;4.316;2022-07-23T07:05:23;19.90;99.90
21787;DHT22;11055;50.870;4.316;2022-07-23T07:07:50;19.90;99.90
21787;DHT22;11055;50.870;4.316;2022-07-23T07:10:16;19.80;99.90
21787;DHT22;11055;50.870;4.316;2022-07-23T07:12:42;19.90;99.90
21787;DHT22;11055;50.870;4.316;2022-07-23T07:15:08;20.10;99.90
21787;DHT22;11055;50.870;4.316;2022-07-23T07:17:34;20.10;99.90
21787;DHT22;11055;50.870;4.316;2022-07-23T07:19:59;20.10;99.90
21787;DHT22;11055;50.870;4.316;2022-07-23T07:22:25;20.20;99.90
21787;DHT22;11055;50.870;4.316;2022-07-23T07:24:50;20.30;99.90
21787;DHT22;11055;50.870;4.316;2022-07-23T07:27:16;20.40;99.90
21787;DHT22;11055;50.870;4.316;2022-07-23T07:29:41;20.50;99.90
21787;DHT22;11055;50.870;4.316;2022-07-23T07:32:07;20.70;99.90
21787;DHT22;11055;50.870;4.316;2022-07-23T07:34:33;20.80;99.90
21787;DHT22;11055;50.870;4.316;2022-07-23T07:36:58;20.80;99.90
21787;DHT22;11055;50.870;4.316;2022-07-23T07:39:24;20.90;99.90
21787;DHT22;11055;50.870;4.316;2022-07-23T07:41:49;21.10;99.90
21787;DHT22;11055;50.870;4.316;2022-07-23T07:44:15;21.20;99.90
21787;DHT22;11055;50.870;4.316;2022-07-23T07:46:40;21.30;99.90
21787;DHT22;11055;50.870;4.316;2022-07-23T07:49:06;21.30;99.90
21787;DHT22;11055;50.870;4.316;2022-07-23T07:51:31;21.50;99.90
21787;DHT22;11055;50.870;4.316;2022-07-23T07:53:58;21.50;99.90
21787;DHT22;11055;50.870;4.316;2022-07-23T07:56:23;21.60;99.90
21787;DHT22;11055;50.870;4.316;2022-07-23T07:58:49;21.70;99.90
21787;DHT22;11055;50.870;4.316;2022-07-23T08:01:14;21.80;99.90
21787;DHT22;11055;50.870;4.316;2022-07-23T08:03:40;22.00;99.90
21787;DHT22;11055;50.870;4.316;2022-07-23T08:06:05;22.00;99.90
21787;DHT22;11055;50.870;4.316;2022-07-23T08:08:31;22.10;99.90
21787;DHT22;11055;50.870;4.316;2022-07-23T08:10:56;22.10;99.90
21787;DHT22;11055;50.870;4.316;2022-07-23T08:13:22;22.30;99.90
21787;DHT22;11055;50.870;4.316;2022-07-23T08:15:47;22.20;99.90
21787;DHT22;11055;50.870;4.316;2022-07-23T08:18:13;22.10;99.90
21787;DHT22;11055;50.870;4.316;2022-07-23T08:20:38;22.20;99.90
21787;DHT22;11055;50.870;4.316;2022-07-23T08:23:05;22.30;99.90
21787;DHT22;11055;50.870;4.316;2022-07-23T08:25:32;22.20;99.90
21787;DHT22;11055;50.870;4.316;2022-07-23T08:27:58;22.30;99.90
21787;DHT22;11055;50.870;4.316;2022-07-23T08:30:26;22.40;99.90
21787;DHT22;11055;50.870;4.316;2022-07-23T08:32:56;22.40;99.90
21787;DHT22;11055;50.870;4.316;2022-07-23T08:35:32;22.60;99.90
21787;DHT22;11055;50.870;4.316;2022-07-23T08:37:58;22.60;99.90
21787;DHT22;11055;50.870;4.316;2022-07-23T08:40:28;22.80;99.90
21787;DHT22;11055;50.870;4.316;2022-07-23T08:42:54;22.80;99.90
21787;DHT22;11055;50.870;4.316;2022-07-23T08:45:20;22.80;99.90
21787;DHT22;11055;50.870;4.316;2022-07-23T08:47:56;22.80;99.90
21787;DHT22;11055;50.870;4.316;2022-07-23T08:50:23;22.80;99.90
21787;DHT22;11055;50.870;4.316;2022-07-23T08:52:50;22.90;99.90
21787;DHT22;11055;50.870;4.316;2022-07-23T08:55:16;23.00;99.90
21787;DHT22;11055;50.870;4.316;2022-07-23T08:57:42;23.00;99.90
21787;DHT22;11055;50.870;4.316;2022-07-23T09:00:07;23.00;99.90
21787;DHT22;11055;50.870;4.316;2022-07-23T09:02:51;23.10;99.90
21787;DHT22;11055;50.870;4.316;2022-07-23T09:05:17;23.20;99.90
21787;DHT22;11055;50.870;4.316;2022-07-23T09:10:27;23.30;99.90
21787;DHT22;11055;50.870;4.316;2022-07-23T09:12:52;23.30;99.90
21787;DHT22;11055;50.870;4.316;2022-07-23T09:15:18;23.40;99.90
21787;DHT22;11055;50.870;4.316;2022-07-23T09:17:43;23.40;99.90
21787;DHT22;11055;50.870;4.316;2022-07-23T09:20:10;23.50;99.90
21787;DHT22;11055;50.870;4.316;2022-07-23T09:22:36;23.50;99.90
21787;DHT22;11055;50.870;4.316;2022-07-23T09:25:20;23.60;99.90
21787;DHT22;11055;50.870;4.316;2022-07-23T09:30:11;23.70;99.90
21787;DHT22;11055;50.870;4.316;2022-07-23T09:32:37;23.70;99.90
21787;DHT22;11055;50.870;4.316;2022-07-23T09:35:03;23.70;99.90
21787;DHT22;11055;50.870;4.316;2022-07-23T09:37:28;23.70;99.90
21787;DHT22;11055;50.870;4.316;2022-07-23T09:39:54;23.90;99.90
21787;DHT22;11055;50.870;4.316;2022-07-23T09:42:28;23.90;99.90
21787;DHT22;11055;50.870;4.316;2022-07-23T09:44:57;24.00;99.90
21787;DHT22;11055;50.870;4.316;2022-07-23T09:47:24;24.00;99.90
21787;DHT22;11055;50.870;4.316;2022-07-23T09:50:06;24.10;99.90
21787;DHT22;11055;50.870;4.316;2022-07-23T09:52:35;23.90;99.90
21787;DHT22;11055;50.870;4.316;2022-07-23T09:55:01;23.90;99.90
21787;DHT22;11055;50.870;4.316;2022-07-23T09:57:28;24.00;99.90
21787;DHT22;11055;50.870;4.316;2022-07-23T09:59:55;24.20;99.90
21787;DHT22;11055;50.870;4.316;2022-07-23T10:02:22;24.30;99.90
21787;DHT22;11055;50.870;4.316;2022-07-23T10:04:48;24.40;99.90
21787;DHT22;11055;50.870;4.316;2022-07-23T10:07:14;24.50;99.90
21787;DHT22;11055;50.870;4.316;2022-07-23T10:09:42;24.60;99.90
21787;DHT22;11055;50.870;4.316;2022-07-23T10:12:12;24.60;99.90
21787;DHT22;11055;50.870;4.316;2022-07-23T10:14:39;24.50;99.90
21787;DHT22;11055;50.870;4.316;2022-07-23T10:17:05;24.70;99.90
21787;DHT22;11055;50.870;4.316;2022-07-23T10:19:31;24.80;99.90
21787;DHT22;11055;50.870;4.316;2022-07-23T10:22:00;25.00;99.90
21787;DHT22;11055;50.870;4.316;2022-07-23T10:27:19;25.10;99.90
21787;DHT22;11055;50.870;4.316;2022-07-23T10:29:55;25.00;99.90
21787;DHT22;11055;50.870;4.316;2022-07-23T10:37:49;25.30;99.90
21787;DHT22;11055;50.870;4.316;2022-07-23T10:40:20;25.50;99.90
21787;DHT22;11055;50.870;4.316;2022-07-23T10:42:48;25.60;99.90
21787;DHT22;11055;50.870;4.316;2022-07-23T10:47:54;25.70;99.90
21787;DHT22;11055;50.870;4.316;2022-07-23T10:57:59;25.90;99.60
21787;DHT22;11055;50.870;4.316;2022-07-23T11:00:25;26.10;99.90
21787;DHT22;11055;50.870;4.316;2022-07-23T11:02:52;25.90;99.50
21787;DHT22;11055;50.870;4.316;2022-07-23T11:05:19;25.90;99.70
21787;DHT22;11055;50.870;4.316;2022-07-23T11:10:36;25.90;99.90
21787;DHT22;11055;50.870;4.316;2022-07-23T11:16:04;26.00;99.80
21787;DHT22;11055;50.870;4.316;2022-07-23T11:23:59;26.30;98.90
21787;DHT22;11055;50.870;4.316;2022-07-23T11:34:31;26.40;98.40
21787;DHT22;11055;50.870;4.316;2022-07-23T11:36:57;26.60;98.10
21787;DHT22;11055;50.870;4.316;2022-07-23T11:39:24;26.80;98.70
21787;DHT22;11055;50.870;4.316;2022-07-23T11:41:50;26.90;97.50
21787;DHT22;11055;50.870;4.316;2022-07-23T11:46:57;27.10;97.30
21787;DHT22;11055;50.870;4.316;2022-07-23T11:49:23;27.00;96.90
21787;DHT22;11055;50.870;4.316;2022-07-23T11:52:05;26.90;97.20
21787;DHT22;11055;50.870;4.316;2022-07-23T11:54:31;26.80;97.40
21787;DHT22;11055;50.870;4.316;2022-07-23T11:56:57;27.10;97.90
21787;DHT22;11055;50.870;4.316;2022-07-23T11:59:24;27.10;97.40
21787;DHT22;11055;50.870;4.316;2022-07-23T12:01:59;27.10;96.90
21787;DHT22;11055;50.870;4.316;2022-07-23T12:04:36;27.00;97.10
21787;DHT22;11055;50.870;4.316;2022-07-23T12:07:02;26.90;96.80
21787;DHT22;11055;50.870;4.316;2022-07-23T12:09:27;27.20;96.40
21787;DHT22;11055;50.870;4.316;2022-07-23T12:11:59;26.90;96.50
21787;DHT22;11055;50.870;4.316;2022-07-23T12:14:25;26.70;97.20
21787;DHT22;11055;50.870;4.316;2022-07-23T12:17:09;26.80;97.00
21787;DHT22;11055;50.870;4.316;2022-07-23T12:19:35;27.00;98.00
21787;DHT22;11055;50.870;4.316;2022-07-23T12:22:01;27.10;96.30
21787;DHT22;11055;50.870;4.316;2022-07-23T12:24:26;27.20;95.90
21787;DHT22;11055;50.870;4.316;2022-07-23T12:27:07;27.00;95.80
21787;DHT22;11055;50.870;4.316;2022-07-23T12:29:34;27.00;96.10
21787;DHT22;11055;50.870;4.316;2022-07-23T12:31:59;27.00;96.90
21787;DHT22;11055;50.870;4.316;2022-07-23T12:34:25;27.10;96.50
21787;DHT22;11055;50.870;4.316;2022-07-23T12:36:51;27.20;96.10
21787;DHT22;11055;50.870;4.316;2022-07-23T12:39:29;26.90;95.90
21787;DHT22;11055;50.870;4.316;2022-07-23T12:41:55;26.60;97.60
21787;DHT22;11055;50.870;4.316;2022-07-23T12:44:21;26.50;96.70
21787;DHT22;11055;50.870;4.316;2022-07-23T12:46:51;26.70;97.40
21787;DHT22;11055;50.870;4.316;2022-07-23T12:49:26;26.90;97.40
21787;DHT22;11055;50.870;4.316;2022-07-23T12:51:52;27.10;97.00
21787;DHT22;11055;50.870;4.316;2022-07-23T12:54:17;27.10;96.60
21787;DHT22;11055;50.870;4.316;2022-07-23T12:56:46;27.20;96.20
21787;DHT22;11055;50.870;4.316;2022-07-23T12:59:13;27.30;96.80
21787;DHT22;11055;50.870;4.316;2022-07-23T13:01:42;27.00;96.00
21787;DHT22;11055;50.870;4.316;2022-07-23T13:04:18;27.00;96.50
21787;DHT22;11055;50.870;4.316;2022-07-23T13:06:44;26.90;96.30
21787;DHT22;11055;50.870;4.316;2022-07-23T13:09:12;27.10;96.50
21787;DHT22;11055;50.870;4.316;2022-07-23T13:11:40;27.20;95.80
21787;DHT22;11055;50.870;4.316;2022-07-23T13:14:06;27.40;96.30
21787;DHT22;11055;50.870;4.316;2022-07-23T13:16:32;27.40;95.80
21787;DHT22;11055;50.870;4.316;2022-07-23T13:18:58;27.30;96.00
21787;DHT22;11055;50.870;4.316;2022-07-23T13:21:24;27.40;96.30
21787;DHT22;11055;50.870;4.316;2022-07-23T13:23:50;27.40;96.40
21787;DHT22;11055;50.870;4.316;2022-07-23T13:26:16;26.70;96.70
21787;DHT22;11055;50.870;4.316;2022-07-23T13:28:42;26.70;97.30
21787;DHT22;11055;50.870;4.316;2022-07-23T13:31:07;26.60;97.60
21787;DHT22;11055;50.870;4.316;2022-07-23T13:33:33;26.80;97.40
21787;DHT22;11055;50.870;4.316;2022-07-23T13:35:58;26.90;97.60
21787;DHT22;11055;50.870;4.316;2022-07-23T13:38:24;26.90;96.90
21787;DHT22;11055;50.870;4.316;2022-07-23T13:40:50;26.80;97.40
21787;DHT22;11055;50.870;4.316;2022-07-23T13:43:18;26.90;97.30
21787;DHT22;11055;50.870;4.316;2022-07-23T13:45:43;26.70;97.00
21787;DHT22;11055;50.870;4.316;2022-07-23T13:48:10;26.40;97.10
21787;DHT22;11055;50.870;4.316;2022-07-23T13:50:36;26.40;97.70
21787;DHT22;11055;50.870;4.316;2022-07-23T13:53:05;26.50;97.20
21787;DHT22;11055;50.870;4.316;2022-07-23T13:55:31;26.60;98.20
21787;DHT22;11055;50.870;4.316;2022-07-23T13:57:57;26.70;97.80
21787;DHT22;11055;50.870;4.316;2022-07-23T14:00:23;26.70;97.10
21787;DHT22;11055;50.870;4.316;2022-07-23T14:02:49;26.60;97.30
21787;DHT22;11055;50.870;4.316;2022-07-23T14:05:14;26.70;97.30
21787;DHT22;11055;50.870;4.316;2022-07-23T14:07:40;26.50;97.30
21787;DHT22;11055;50.870;4.316;2022-07-23T14:10:08;26.40;97.40
21787;DHT22;11055;50.870;4.316;2022-07-23T14:12:34;26.40;97.70
21787;DHT22;11055;50.870;4.316;2022-07-23T14:15:00;26.40;97.70
21787;DHT22;11055;50.870;4.316;2022-07-23T14:17:25;26.50;97.80
21787;DHT22;11055;50.870;4.316;2022-07-23T14:19:51;26.60;97.30
21787;DHT22;11055;50.870;4.316;2022-07-23T14:22:17;26.60;97.90
21787;DHT22;11055;50.870;4.316;2022-07-23T14:24:42;26.60;97.40
21787;DHT22;11055;50.870;4.316;2022-07-23T14:27:08;26.70;97.90
21787;DHT22;11055;50.870;4.316;2022-07-23T14:29:34;26.70;97.80
21787;DHT22;11055;50.870;4.316;2022-07-23T14:31:59;26.80;97.60
21787;DHT22;11055;50.870;4.316;2022-07-23T14:34:25;26.80;97.10
21787;DHT22;11055;50.870;4.316;2022-07-23T14:36:51;26.80;97.40
21787;DHT22;11055;50.870;4.316;2022-07-23T14:39:17;26.90;97.20
21787;DHT22;11055;50.870;4.316;2022-07-23T14:41:43;26.90;97.30
21787;DHT22;11055;50.870;4.316;2022-07-23T14:44:08;26.70;96.90
21787;DHT22;11055;50.870;4.316;2022-07-23T14:46:34;26.60;96.70
21787;DHT22;11055;50.870;4.316;2022-07-23T14:48:59;26.40;97.20
21787;DHT22;11055;50.870;4.316;2022-07-23T14:51:25;26.50;97.30
21787;DHT22;11055;50.870;4.316;2022-07-23T14:53:51;26.50;97.20
21787;DHT22;11055;50.870;4.316;2022-07-23T14:56:16;26.60;97.30
21787;DHT22;11055;50.870;4.316;2022-07-23T14:58:42;26.60;97.10
21787;DHT22;11055;50.870;4.316;2022-07-23T15:01:08;26.70;97.60
21787;DHT22;11055;50.870;4.316;2022-07-23T15:03:33;26.60;97.80
21787;DHT22;11055;50.870;4.316;2022-07-23T15:05:59;26.60;97.20
21787;DHT22;11055;50.870;4.316;2022-07-23T15:08:24;26.70;97.00
21787;DHT22;11055;50.870;4.316;2022-07-23T15:10:50;26.50;97.20
21787;DHT22;11055;50.870;4.316;2022-07-23T15:13:16;26.50;96.60
21787;DHT22;11055;50.870;4.316;2022-07-23T15:15:41;26.50;96.70
21787;DHT22;11055;50.870;4.316;2022-07-23T15:18:07;26.80;97.40
21787;DHT22;11055;50.870;4.316;2022-07-23T15:20:33;26.80;96.30
21787;DHT22;11055;50.870;4.316;2022-07-23T15:22:59;26.80;96.90
21787;DHT22;11055;50.870;4.316;2022-07-23T15:25:25;27.00;97.10
21787;DHT22;11055;50.870;4.316;2022-07-23T15:27:50;27.00;96.40
21787;DHT22;11055;50.870;4.316;2022-07-23T15:30:16;26.90;96.70
21787;DHT22;11055;50.870;4.316;2022-07-23T15:32:41;26.80;96.80
21787;DHT22;11055;50.870;4.316;2022-07-23T15:35:07;26.80;96.40
21787;DHT22;11055;50.870;4.316;2022-07-23T15:37:34;26.80;97.00
21787;DHT22;11055;50.870;4.316;2022-07-23T15:40:00;26.80;96.60
21787;DHT22;11055;50.870;4.316;2022-07-23T15:42:25;26.70;96.50
21787;DHT22;11055;50.870;4.316;2022-07-23T15:44:51;26.70;97.00
21787;DHT22;11055;50.870;4.316;2022-07-23T15:47:17;26.70;96.70
21787;DHT22;11055;50.870;4.316;2022-07-23T15:49:43;26.60;96.50
21787;DHT22;11055;50.870;4.316;2022-07-23T15:52:09;26.50;97.00
21787;DHT22;11055;50.870;4.316;2022-07-23T15:54:35;26.60;97.10
21787;DHT22;11055;50.870;4.316;2022-07-23T15:57:01;26.80;97.00
21787;DHT22;11055;50.870;4.316;2022-07-23T15:59:27;26.80;96.70
21787;DHT22;11055;50.870;4.316;2022-07-23T16:01:53;26.80;96.70
21787;DHT22;11055;50.870;4.316;2022-07-23T16:04:18;26.90;96.80
21787;DHT22;11055;50.870;4.316;2022-07-23T16:06:44;26.90;96.60
21787;DHT22;11055;50.870;4.316;2022-07-23T16:09:09;26.90;96.40